createdAt,value
2023-05-05T00:00:08.836Z,8.00
2023-05-05T00:02:37.548Z,7.50
2023-05-05T00:05:07.459Z,7.17
2023-05-05T00:07:37.214Z,8.03
2023-05-05T00:10:06.653Z,7.23
2023-05-05T00:12:35.188Z,6.87
2023-05-05T00:15:03.344Z,6.80
2023-05-05T00:17:31.616Z,6.20
2023-05-05T00:20:00.443Z,6.67
2023-05-05T00:22:28.660Z,6.83
2023-05-05T00:24:58.453Z,6.47
2023-05-05T00:27:26.656Z,7.50
2023-05-05T00:29:55.014Z,6.93
2023-05-05T00:32:23.207Z,7.27
2023-05-05T00:34:52.107Z,8.30
2023-05-05T00:37:20.430Z,9.00
2023-05-05T00:39:48.831Z,9.10
2023-05-05T00:42:18.334Z,9.27
2023-05-05T00:44:47.034Z,8.90
2023-05-05T00:47:16.754Z,8.40
2023-05-05T00:49:45.361Z,8.23
2023-05-05T00:52:13.637Z,7.77
2023-05-05T00:54:42.114Z,7.87
2023-05-05T00:57:11.569Z,8.03
2023-05-05T00:59:43.077Z,7.97
2023-05-05T01:02:11.515Z,7.10
2023-05-05T01:04:40.131Z,8.23
2023-05-05T01:07:14.693Z,8.03
2023-05-05T01:09:55.554Z,7.43
2023-05-05T01:12:42.322Z,7.63
2023-05-05T01:15:19.235Z,6.80
2023-05-05T01:17:57.151Z,7.20
2023-05-05T01:20:33.117Z,7.33
2023-05-05T01:23:06.808Z,6.33
2023-05-05T01:26:08.375Z,7.40
2023-05-05T01:28:52.630Z,7.10
2023-05-05T01:31:39.861Z,7.93
2023-05-05T01:34:11.053Z,7.00
2023-05-05T01:36:42.924Z,8.30
2023-05-05T01:39:20.767Z,7.87
2023-05-05T01:41:52.206Z,7.30
2023-05-05T01:44:21.698Z,7.33
2023-05-05T01:46:53.060Z,8.07
2023-05-05T01:49:21.668Z,7.30
2023-05-05T01:51:50.989Z,7.50
2023-05-05T01:54:21.348Z,8.00
2023-05-05T01:56:50.320Z,7.50
2023-05-05T01:59:21.718Z,7.73
2023-05-05T02:01:52.522Z,6.97
2023-05-05T02:04:22.773Z,7.37
2023-05-05T02:06:54.342Z,7.20
2023-05-05T02:09:24.466Z,6.47
2023-05-05T02:11:53.512Z,6.80
2023-05-05T02:14:23.108Z,6.40
2023-05-05T02:16:53.380Z,6.23
2023-05-05T02:19:41.247Z,5.83
2023-05-05T02:22:09.892Z,6.13
2023-05-05T02:24:38.681Z,5.97
2023-05-05T02:27:09.285Z,5.40
2023-05-05T02:29:43.716Z,5.80
2023-05-05T02:32:19.320Z,6.20
2023-05-05T02:34:50.501Z,6.20
2023-05-05T02:37:24.020Z,6.10
2023-05-05T02:39:59.074Z,5.57
2023-05-05T02:42:30.431Z,5.77
2023-05-05T02:45:05.433Z,6.20
2023-05-05T02:47:37.850Z,5.50
2023-05-05T02:50:09.196Z,5.80
2023-05-05T02:52:38.084Z,5.70
2023-05-05T02:55:07.907Z,5.37
2023-05-05T02:57:39.286Z,5.57
2023-05-05T03:00:14.905Z,5.80
2023-05-05T03:02:55.098Z,5.40
2023-05-05T03:05:26.029Z,6.07
2023-05-05T03:07:56.965Z,5.67
2023-05-05T03:10:31.006Z,5.63
2023-05-05T03:13:02.446Z,5.27
2023-05-05T03:15:36.894Z,4.73
2023-05-05T03:18:10.761Z,5.07
2023-05-05T03:20:40.870Z,5.23
2023-05-05T03:23:10.765Z,5.70
2023-05-05T03:25:43.732Z,5.23
2023-05-05T03:28:12.179Z,5.37
2023-05-05T03:30:41.083Z,5.37
2023-05-05T03:33:11.635Z,5.40
2023-05-05T03:35:39.965Z,5.37
2023-05-05T03:38:08.264Z,5.53
2023-05-05T03:40:44.180Z,4.87
2023-05-05T03:43:13.667Z,4.73
2023-05-05T03:45:42.153Z,5.20
2023-05-05T03:48:12.934Z,5.33
2023-05-05T03:50:41.231Z,5.33
2023-05-05T03:53:09.472Z,5.00
2023-05-05T03:55:38.061Z,5.00
2023-05-05T03:58:06.698Z,5.13
2023-05-05T04:00:35.313Z,5.47
2023-05-05T04:03:04.391Z,5.47
2023-05-05T04:05:35.939Z,5.70
2023-05-05T04:08:04.515Z,5.20
2023-05-05T04:10:33.471Z,5.43
2023-05-05T04:13:03.059Z,5.33
2023-05-05T04:15:32.159Z,5.30
2023-05-05T04:18:01.404Z,5.13
2023-05-05T04:20:29.709Z,5.33
2023-05-05T04:22:59.357Z,5.50
2023-05-05T04:25:27.911Z,4.80
2023-05-05T04:27:56.416Z,5.30
2023-05-05T04:30:27.514Z,5.10
2023-05-05T04:32:55.814Z,5.33
2023-05-05T04:35:24.506Z,5.13
2023-05-05T04:37:53.625Z,4.90
2023-05-05T04:40:23.240Z,5.33
2023-05-05T04:42:51.699Z,5.03
2023-05-05T04:45:21.118Z,5.40
2023-05-05T04:47:49.961Z,4.93
2023-05-05T04:50:18.317Z,4.83
2023-05-05T04:52:46.686Z,5.30
2023-05-05T04:55:15.009Z,5.10
2023-05-05T04:57:45.858Z,7.00
2023-05-05T05:00:14.981Z,6.27
2023-05-05T05:02:44.336Z,6.50
2023-05-05T05:05:13.091Z,6.27
2023-05-05T05:07:41.516Z,5.93
2023-05-05T05:10:11.340Z,5.53
2023-05-05T05:12:40.551Z,5.13
2023-05-05T05:15:11.749Z,5.43
2023-05-05T05:17:40.246Z,5.50
2023-05-05T05:20:09.813Z,4.83
2023-05-05T05:22:39.236Z,5.03
2023-05-05T05:25:08.329Z,5.27
2023-05-05T05:27:37.583Z,5.60
2023-05-05T05:30:10.578Z,4.80
2023-05-05T05:32:39.140Z,4.80
2023-05-05T05:35:09.408Z,4.90
2023-05-05T05:37:38.667Z,5.03
2023-05-05T05:40:08.454Z,4.97
2023-05-05T05:42:37.311Z,5.00
2023-05-05T05:45:06.508Z,5.07
2023-05-05T05:47:36.487Z,5.93
2023-05-05T05:50:07.104Z,6.03
2023-05-05T05:52:36.201Z,5.97
2023-05-05T05:55:06.841Z,5.80
2023-05-05T05:57:36.643Z,6.17
2023-05-05T06:00:06.792Z,6.53
2023-05-05T06:02:37.075Z,6.63
2023-05-05T06:05:05.903Z,6.37
2023-05-05T06:07:34.288Z,6.10
2023-05-05T06:10:26.477Z,5.60
2023-05-05T06:12:57.142Z,5.50
2023-05-05T06:15:25.903Z,5.80
2023-05-05T06:17:55.643Z,5.67
2023-05-05T06:20:23.934Z,6.00
2023-05-05T06:22:53.158Z,5.23
2023-05-05T06:25:21.437Z,5.30
2023-05-05T06:27:50.374Z,5.40
2023-05-05T06:30:18.883Z,5.27
2023-05-05T06:32:47.200Z,4.90
2023-05-05T06:35:17.165Z,4.80
2023-05-05T06:38:05.241Z,5.57
2023-05-05T06:40:33.642Z,5.30
2023-05-05T06:43:02.082Z,6.60
2023-05-05T06:45:31.130Z,5.67
2023-05-05T06:48:00.263Z,6.43
2023-05-05T06:50:30.367Z,5.00
2023-05-05T06:52:58.584Z,5.13
2023-05-05T06:55:26.990Z,4.80
2023-05-05T06:57:55.180Z,4.53
2023-05-05T07:00:24.155Z,4.90
2023-05-05T07:02:53.432Z,5.00
2023-05-05T07:05:22.159Z,3.97
2023-05-05T07:07:55.521Z,4.13
2023-05-05T07:10:25.756Z,4.37
2023-05-05T07:12:55.966Z,4.03
2023-05-05T07:15:29.087Z,3.77
2023-05-05T07:17:58.388Z,4.10
2023-05-05T07:20:27.943Z,4.00
2023-05-05T07:22:58.372Z,3.67
2023-05-05T07:25:27.739Z,3.43
2023-05-05T07:27:56.369Z,3.33
2023-05-05T07:30:26.128Z,3.53
2023-05-05T07:32:56.856Z,3.47
2023-05-05T07:35:25.501Z,3.13
2023-05-05T07:37:53.760Z,3.40
2023-05-05T07:40:23.875Z,3.20
2023-05-05T07:42:52.860Z,3.13
2023-05-05T07:45:21.051Z,3.60
2023-05-05T07:47:49.926Z,3.37
2023-05-05T07:50:18.628Z,3.20
2023-05-05T07:52:51.883Z,3.27
2023-05-05T07:55:28.834Z,3.00
2023-05-05T07:57:57.402Z,3.13
2023-05-05T08:00:25.793Z,3.50
2023-05-05T08:02:54.205Z,3.07
2023-05-05T08:05:22.572Z,3.07
2023-05-05T08:07:50.951Z,2.90
2023-05-05T08:10:21.928Z,3.17
2023-05-05T08:12:51.536Z,3.10
2023-05-05T08:15:20.358Z,2.90
2023-05-05T08:17:50.153Z,3.20
2023-05-05T08:20:19.452Z,3.33
2023-05-05T08:22:48.119Z,3.30
2023-05-05T08:25:16.775Z,3.20
2023-05-05T08:27:45.634Z,3.23
2023-05-05T08:30:17.168Z,3.20
2023-05-05T08:32:45.583Z,3.13
2023-05-05T08:35:14.623Z,3.07
2023-05-05T08:37:43.263Z,2.90
2023-05-05T08:40:14.722Z,3.20
2023-05-05T08:42:44.596Z,3.60
2023-05-05T08:45:13.040Z,3.43
2023-05-05T08:47:43.397Z,3.23
2023-05-05T08:50:12.797Z,3.37
2023-05-05T08:52:44.482Z,2.80
2023-05-05T08:55:17.526Z,3.50
2023-05-05T08:57:52.283Z,3.30
2023-05-05T09:00:22.085Z,3.20
2023-05-05T09:02:52.294Z,3.50
2023-05-05T09:05:20.709Z,2.90
2023-05-05T09:07:49.211Z,3.00
2023-05-05T09:10:20.404Z,2.87
2023-05-05T09:12:51.152Z,3.27
2023-05-05T09:15:20.973Z,3.30
2023-05-05T09:17:49.232Z,3.30
2023-05-05T09:20:18.956Z,3.13
2023-05-05T09:22:49.065Z,3.30
2023-05-05T09:25:18.948Z,3.90
2023-05-05T09:27:49.235Z,3.20
2023-05-05T09:30:24.443Z,3.80
2023-05-05T09:32:54.148Z,3.00
2023-05-05T09:35:26.611Z,3.87
2023-05-05T09:37:55.167Z,3.93
2023-05-05T09:40:24.796Z,3.30
2023-05-05T09:43:02.300Z,3.27
2023-05-05T09:45:31.095Z,3.40
2023-05-05T09:48:00.567Z,3.60
2023-05-05T09:50:32.746Z,3.43
2023-05-05T09:53:02.701Z,3.37
2023-05-05T09:55:32.039Z,2.87
2023-05-05T09:58:19.265Z,3.77
2023-05-05T10:00:48.055Z,3.30
2023-05-05T10:03:16.469Z,3.50
2023-05-05T10:05:51.627Z,3.27
2023-05-05T10:08:23.149Z,3.17
2023-05-05T10:10:59.644Z,3.70
2023-05-05T10:13:33.251Z,2.87
2023-05-05T10:16:13.428Z,3.20
2023-05-05T10:18:52.354Z,3.40
2023-05-05T10:21:44.982Z,3.30
2023-05-05T10:24:56.303Z,3.20
2023-05-05T10:31:29.206Z,2.93
2023-05-05T10:34:44.781Z,2.97
2023-05-05T10:38:00.251Z,3.20
2023-05-05T10:40:30.776Z,3.93
2023-05-05T10:43:04.497Z,3.80
2023-05-05T10:45:44.356Z,5.07
2023-05-05T10:48:20.572Z,5.80
2023-05-05T10:51:35.201Z,4.63
2023-05-05T10:54:46.047Z,5.57
2023-05-05T10:57:40.128Z,4.90
2023-05-05T11:00:30.354Z,4.47
2023-05-05T11:03:23.251Z,3.93
2023-05-05T11:06:12.462Z,4.57
2023-05-05T11:08:42.621Z,4.20
2023-05-05T11:11:13.982Z,3.53
2023-05-05T11:13:42.736Z,3.50
2023-05-05T11:16:43.576Z,4.00
2023-05-05T11:19:46.899Z,3.20
2023-05-05T11:22:16.444Z,3.40
2023-05-05T11:24:44.839Z,3.13
2023-05-05T11:27:14.490Z,3.83
2023-05-05T11:30:09.279Z,3.73
2023-05-05T11:32:38.003Z,3.27
2023-05-05T11:35:10.723Z,3.50
2023-05-05T11:37:40.453Z,3.70
2023-05-05T11:40:24.786Z,3.70
2023-05-05T11:43:05.563Z,3.40
2023-05-05T11:45:34.203Z,3.10
2023-05-05T11:48:26.936Z,3.40
2023-05-05T11:50:56.000Z,3.53
2023-05-05T11:53:24.994Z,3.20
2023-05-05T11:56:07.539Z,3.07
2023-05-05T11:58:37.840Z,3.30
2023-05-05T12:01:07.567Z,3.40
2023-05-05T12:03:36.858Z,3.50
2023-05-05T12:06:08.071Z,3.60
2023-05-05T12:08:37.792Z,3.13
2023-05-05T12:11:07.567Z,3.50
2023-05-05T12:13:40.074Z,3.30
2023-05-05T12:16:11.607Z,3.37
2023-05-05T12:18:40.576Z,3.60
2023-05-05T12:21:16.907Z,3.60
2023-05-05T12:23:45.740Z,3.10
2023-05-05T12:26:30.726Z,3.20
2023-05-05T12:29:01.759Z,3.20
2023-05-05T12:31:36.953Z,3.13
2023-05-05T12:34:23.090Z,3.20
2023-05-05T12:36:53.773Z,3.00
2023-05-05T12:39:23.813Z,3.00
2023-05-05T12:42:02.681Z,3.70
2023-05-05T12:44:39.299Z,3.10
2023-05-05T12:47:08.072Z,3.30
2023-05-05T12:49:49.630Z,3.23
2023-05-05T12:52:39.784Z,3.40
2023-05-05T12:55:10.660Z,3.20
2023-05-05T12:57:40.421Z,3.07
2023-05-05T13:00:17.918Z,3.50
2023-05-05T13:02:46.651Z,3.20
2023-05-05T13:05:15.581Z,3.70
2023-05-05T13:07:51.916Z,3.37
2023-05-05T13:10:21.579Z,3.27
2023-05-05T13:12:50.435Z,3.37
2023-05-05T13:15:20.404Z,3.67
2023-05-05T13:17:48.994Z,3.63
2023-05-05T13:20:17.376Z,3.73
2023-05-05T13:22:45.795Z,3.30
2023-05-05T13:25:16.000Z,3.40
2023-05-05T13:27:44.590Z,3.37
2023-05-05T13:30:13.871Z,3.97
2023-05-05T13:32:43.521Z,3.50
2023-05-05T13:35:14.644Z,3.60
2023-05-05T13:37:44.382Z,3.60
2023-05-05T13:40:14.246Z,3.47
2023-05-05T13:42:43.236Z,3.60
2023-05-05T13:45:14.187Z,3.80
2023-05-05T13:47:45.179Z,3.47
2023-05-05T13:50:13.898Z,3.60
2023-05-05T13:52:43.157Z,3.80
2023-05-05T13:55:13.682Z,3.43
2023-05-05T13:57:42.556Z,3.70
2023-05-05T14:00:12.162Z,4.20
2023-05-05T14:02:40.886Z,3.90
2023-05-05T14:05:11.723Z,3.50
2023-05-05T14:07:40.370Z,3.57
2023-05-05T14:10:09.560Z,3.60
2023-05-05T14:12:37.967Z,3.40
2023-05-05T14:15:08.276Z,3.67
2023-05-05T14:17:37.603Z,3.50
2023-05-05T14:20:27.293Z,3.63
2023-05-05T14:22:59.806Z,3.40
2023-05-05T14:25:31.908Z,3.20
2023-05-05T14:28:00.297Z,3.07
2023-05-05T14:30:28.547Z,3.57
2023-05-05T14:32:59.187Z,3.53
2023-05-05T14:35:28.944Z,3.43
2023-05-05T14:37:57.890Z,3.50
2023-05-05T14:40:29.414Z,3.50
2023-05-05T14:42:58.077Z,3.60
2023-05-05T14:45:30.022Z,3.20
2023-05-05T14:47:58.531Z,3.07
2023-05-05T14:50:28.135Z,3.23
2023-05-05T14:52:57.271Z,3.40
2023-05-05T14:55:28.149Z,3.27
2023-05-05T14:57:56.631Z,3.30
2023-05-05T15:00:26.537Z,3.27
2023-05-05T15:02:54.936Z,3.30
2023-05-05T15:05:23.368Z,3.23
2023-05-05T15:07:54.285Z,3.40
2023-05-05T15:10:22.981Z,3.40
2023-05-05T15:12:51.984Z,3.20
2023-05-05T15:15:20.517Z,3.50
2023-05-05T15:17:48.807Z,3.27
2023-05-05T15:20:17.029Z,3.10
2023-05-05T15:22:45.839Z,3.20
2023-05-05T15:25:18.868Z,3.17
2023-05-05T15:27:47.207Z,3.30
2023-05-05T15:30:16.043Z,3.03
2023-05-05T15:32:45.484Z,3.20
2023-05-05T15:35:14.491Z,2.97
2023-05-05T15:37:43.588Z,3.03
2023-05-05T15:40:12.793Z,2.90
2023-05-05T15:42:42.741Z,3.10
2023-05-05T15:45:15.881Z,3.23
2023-05-05T15:47:44.590Z,3.43
2023-05-05T15:50:13.245Z,4.03
2023-05-05T15:52:41.809Z,3.90
2023-05-05T15:55:11.358Z,3.47
2023-05-05T15:57:40.487Z,3.50
2023-05-05T16:00:12.047Z,3.33
2023-05-05T16:02:40.481Z,3.37
2023-05-05T16:05:09.990Z,3.40
2023-05-05T16:07:39.011Z,3.40
2023-05-05T16:10:08.851Z,3.83
2023-05-05T16:12:37.386Z,3.60
2023-05-05T16:15:07.391Z,3.63
2023-05-05T16:17:37.546Z,3.40
2023-05-05T16:20:07.004Z,3.37
2023-05-05T16:22:36.224Z,3.37
2023-05-05T16:25:04.682Z,4.30
2023-05-05T16:27:33.723Z,3.57
2023-05-05T16:30:02.029Z,3.90
2023-05-05T16:32:30.535Z,4.07
2023-05-05T16:35:02.466Z,4.17
2023-05-05T16:37:31.990Z,3.60
2023-05-05T16:40:01.306Z,3.50
2023-05-05T16:42:29.646Z,3.57
2023-05-05T16:45:01.834Z,3.70
2023-05-05T16:47:30.435Z,3.80
2023-05-05T16:49:59.109Z,3.23
2023-05-05T16:52:28.661Z,3.30
2023-05-05T16:54:57.527Z,3.03
2023-05-05T16:57:25.794Z,3.50
2023-05-05T16:59:56.316Z,3.20
2023-05-05T17:02:24.771Z,3.13
2023-05-05T17:04:53.207Z,2.80
2023-05-05T17:07:21.469Z,2.87
2023-05-05T17:09:51.218Z,3.13
2023-05-05T17:12:19.665Z,3.60
2023-05-05T17:14:48.624Z,3.80
2023-05-05T17:17:17.426Z,4.03
2023-05-05T17:19:46.396Z,3.80
2023-05-05T17:22:14.635Z,4.00
2023-05-05T17:24:43.066Z,5.27
2023-05-05T17:27:12.781Z,5.20
2023-05-05T17:29:41.382Z,4.43
2023-05-05T17:32:10.496Z,4.63
2023-05-05T17:34:39.165Z,7.70
2023-05-05T17:37:09.259Z,6.93
2023-05-05T17:39:37.402Z,5.53
2023-05-05T17:42:06.149Z,5.33
2023-05-05T17:44:35.716Z,5.53
2023-05-05T17:47:04.336Z,4.87
2023-05-05T17:49:48.325Z,4.47
2023-05-05T17:52:16.692Z,4.70
2023-05-05T17:54:46.074Z,4.53
2023-05-05T17:57:14.409Z,5.00
2023-05-05T18:00:05.677Z,4.80
2023-05-05T18:02:36.892Z,4.17
2023-05-05T18:05:06.175Z,4.30
2023-05-05T18:07:35.292Z,4.10
2023-05-05T18:10:03.503Z,4.20
2023-05-05T18:12:31.654Z,4.10
2023-05-05T18:15:01.537Z,3.97
2023-05-05T18:17:31.150Z,3.87
2023-05-05T18:20:19.035Z,3.90
2023-05-05T18:22:47.162Z,4.27
2023-05-05T18:25:16.617Z,4.00
2023-05-05T18:28:04.105Z,4.00
2023-05-05T18:30:33.615Z,3.93
2023-05-05T18:33:03.805Z,3.77
2023-05-05T18:35:34.235Z,3.80
2023-05-05T18:38:03.712Z,3.67
2023-05-05T18:40:32.537Z,4.33
2023-05-05T18:43:01.194Z,3.87
2023-05-05T18:45:29.634Z,4.10
2023-05-05T18:47:58.288Z,3.63
2023-05-05T18:50:28.057Z,3.97
2023-05-05T18:52:57.162Z,3.80
2023-05-05T18:55:25.591Z,3.70
2023-05-05T18:57:53.999Z,3.70
2023-05-05T19:00:22.226Z,3.60
2023-05-05T19:02:50.700Z,3.67
2023-05-05T19:05:19.285Z,3.67
2023-05-05T19:07:48.832Z,3.37
2023-05-05T19:10:17.128Z,4.00
2023-05-05T19:12:45.427Z,3.50
2023-05-05T19:15:14.118Z,3.77
2023-05-05T19:17:42.675Z,3.70
2023-05-05T19:20:11.948Z,3.60
2023-05-05T19:22:40.342Z,4.20
2023-05-05T19:25:11.427Z,3.53
2023-05-05T19:27:40.008Z,3.40
2023-05-05T19:30:09.498Z,3.30
2023-05-05T19:32:38.836Z,3.80
2023-05-05T19:35:11.859Z,3.60
2023-05-05T19:37:40.359Z,4.67
2023-05-05T19:40:11.284Z,3.93
2023-05-05T19:42:39.686Z,4.47
2023-05-05T19:45:09.426Z,4.40
2023-05-05T19:47:37.720Z,4.63
2023-05-05T19:50:09.172Z,4.10
2023-05-05T19:52:41.276Z,4.00
2023-05-05T19:55:13.288Z,3.57
2023-05-05T19:57:41.699Z,3.77
2023-05-05T20:00:11.385Z,4.00
2023-05-05T20:02:39.776Z,4.30
2023-05-05T20:05:09.301Z,4.80
2023-05-05T20:07:38.945Z,5.30
2023-05-05T20:10:08.643Z,4.47
2023-05-05T20:12:39.259Z,4.33
2023-05-05T20:15:09.132Z,4.10
2023-05-05T20:17:39.030Z,4.30
2023-05-05T20:20:11.804Z,4.47
2023-05-05T20:22:40.774Z,4.03
2023-05-05T20:25:10.333Z,4.07
2023-05-05T20:27:41.392Z,3.90
2023-05-05T20:30:11.945Z,3.93
2023-05-05T20:32:41.555Z,3.80
2023-05-05T20:35:12.917Z,3.70
2023-05-05T20:37:41.291Z,3.70
2023-05-05T20:40:11.086Z,3.77
2023-05-05T20:42:40.900Z,3.67
2023-05-05T20:45:11.541Z,3.70
2023-05-05T20:47:40.309Z,3.77
2023-05-05T20:50:09.720Z,4.30
2023-05-05T20:52:39.410Z,4.10
2023-05-05T20:55:08.146Z,3.60
2023-05-05T20:57:36.757Z,4.67
2023-05-05T21:00:08.195Z,4.97
2023-05-05T21:02:37.088Z,4.77
2023-05-05T21:05:11.819Z,5.20
2023-05-05T21:07:41.078Z,5.17
2023-05-05T21:10:11.217Z,5.60
2023-05-05T21:12:41.835Z,5.17
2023-05-05T21:15:12.668Z,7.33
2023-05-05T21:17:44.703Z,5.50
2023-05-05T21:20:13.914Z,5.17
2023-05-05T21:22:43.283Z,5.30
2023-05-05T21:25:13.532Z,6.17
2023-05-05T21:27:42.841Z,6.43
2023-05-05T21:30:15.818Z,5.40
2023-05-05T21:32:44.680Z,6.77
2023-05-05T21:35:13.262Z,5.70
2023-05-05T21:37:41.822Z,5.80
2023-05-05T21:40:13.500Z,6.07
2023-05-05T21:42:42.530Z,6.50
2023-05-05T21:45:12.257Z,5.60
2023-05-05T21:47:42.185Z,6.00
2023-05-05T21:50:12.181Z,5.80
2023-05-05T21:52:41.607Z,7.13
2023-05-05T21:55:11.232Z,5.70
2023-05-05T21:57:42.634Z,6.40
2023-05-05T22:00:16.578Z,6.70
2023-05-05T22:02:47.776Z,7.80
2023-05-05T22:05:23.833Z,6.07
2023-05-05T22:07:53.105Z,6.40
2023-05-05T22:10:22.492Z,7.43
2023-05-05T22:12:51.120Z,7.10
2023-05-05T22:15:20.096Z,6.63
2023-05-05T22:17:50.352Z,8.13
2023-05-05T22:20:18.739Z,7.23
2023-05-05T22:22:46.987Z,6.73
2023-05-05T22:25:15.398Z,7.00
2023-05-05T22:27:43.815Z,6.67
2023-05-05T22:30:14.223Z,6.07
2023-05-05T22:32:46.319Z,6.60
2023-05-05T22:35:43.652Z,6.70
2023-05-05T22:38:13.375Z,6.70
2023-05-05T22:40:42.063Z,6.30
2023-05-05T22:43:11.455Z,6.97
2023-05-05T22:45:39.918Z,7.00
2023-05-05T22:48:08.304Z,6.80
2023-05-05T22:50:37.010Z,7.27
2023-05-05T22:53:07.544Z,7.30
2023-05-05T22:55:36.266Z,7.50
2023-05-05T22:58:05.103Z,9.03
2023-05-05T23:00:34.668Z,8.33
2023-05-05T23:03:02.980Z,8.13
2023-05-05T23:05:34.341Z,9.53
2023-05-05T23:08:03.627Z,8.17
2023-05-05T23:10:33.955Z,7.83
2023-05-05T23:13:03.331Z,8.23
2023-05-05T23:15:32.445Z,8.70
2023-05-05T23:18:01.646Z,7.83
2023-05-05T23:20:30.854Z,9.07
2023-05-05T23:23:01.666Z,8.33
2023-05-05T23:25:30.637Z,8.60
2023-05-05T23:28:03.483Z,10.00
2023-05-05T23:30:33.717Z,10.27
2023-05-05T23:33:05.195Z,10.60
2023-05-05T23:35:34.042Z,10.60
2023-05-05T23:38:05.819Z,11.53
2023-05-05T23:40:37.446Z,10.23
2023-05-05T23:43:09.156Z,10.30
2023-05-05T23:45:39.663Z,10.67
2023-05-05T23:48:10.968Z,10.47
2023-05-05T23:50:39.928Z,9.80
2023-05-05T23:53:08.710Z,9.23
2023-05-05T23:55:39.223Z,9.37
2023-05-05T23:58:16.047Z,9.03
